createdAt,value
2022-12-01T00:00:21.550Z,100.00
2022-12-01T00:02:51.526Z,100.00
2022-12-01T00:05:25.160Z,100.00
2022-12-01T00:07:55.119Z,100.00
2022-12-01T00:10:28.848Z,100.00
2022-12-01T00:13:00.451Z,100.00
2022-12-01T00:15:34.589Z,100.00
2022-12-01T00:18:05.477Z,100.00
2022-12-01T00:20:40.203Z,100.00
2022-12-01T00:23:10.037Z,100.00
2022-12-01T00:25:39.902Z,100.00
2022-12-01T00:28:09.759Z,100.00
2022-12-01T00:30:39.624Z,100.00
2022-12-01T00:33:09.466Z,100.00
2022-12-01T00:35:41.901Z,100.00
2022-12-01T00:38:11.747Z,100.00
2022-12-01T00:40:41.614Z,100.00
2022-12-01T00:43:12.556Z,100.00
2022-12-01T00:45:42.429Z,100.00
2022-12-01T00:48:12.386Z,100.00
2022-12-01T00:50:45.220Z,100.00
2022-12-01T00:53:15.102Z,100.00
2022-12-01T00:55:44.958Z,100.00
2022-12-01T00:58:14.830Z,100.00
2022-12-01T01:00:44.733Z,100.00
2022-12-01T01:03:14.906Z,100.00
2022-12-01T01:05:47.379Z,100.00
2022-12-01T01:08:17.916Z,100.00
2022-12-01T01:10:50.073Z,100.00
2022-12-01T01:13:20.317Z,100.00
2022-12-01T01:16:00.633Z,100.00
2022-12-01T01:18:30.982Z,100.00
2022-12-01T01:21:05.202Z,100.00
2022-12-01T01:23:35.219Z,100.00
2022-12-01T01:26:06.314Z,100.00
2022-12-01T01:28:36.223Z,100.00
2022-12-01T01:31:08.598Z,100.00
2022-12-01T01:33:38.986Z,100.00
2022-12-01T01:36:12.380Z,100.00
2022-12-01T01:38:42.247Z,100.00
2022-12-01T01:41:12.248Z,100.00
2022-12-01T01:43:45.385Z,100.00
2022-12-01T01:46:17.637Z,100.00
2022-12-01T01:48:52.519Z,100.00
2022-12-01T01:51:29.315Z,100.00
2022-12-01T01:54:04.207Z,100.00
2022-12-01T01:56:34.267Z,100.00
2022-12-01T01:59:04.660Z,100.00
2022-12-01T02:01:34.858Z,100.00
2022-12-01T02:04:05.855Z,100.00
2022-12-01T02:06:38.578Z,100.00
2022-12-01T02:09:08.410Z,100.00
2022-12-01T02:12:03.882Z,100.00
2022-12-01T02:15:00.783Z,100.00
2022-12-01T02:17:41.725Z,100.00
2022-12-01T02:20:34.959Z,100.00
2022-12-01T02:23:47.997Z,100.00
2022-12-01T02:26:36.770Z,100.00
2022-12-01T02:29:28.707Z,100.00
2022-12-01T02:32:10.581Z,100.00
2022-12-01T02:34:46.833Z,100.00
2022-12-01T02:37:27.059Z,100.00
2022-12-01T02:40:04.646Z,100.00
2022-12-01T02:42:56.595Z,100.00
2022-12-01T02:45:35.951Z,100.00
2022-12-01T02:48:14.603Z,100.00
2022-12-01T02:50:46.662Z,100.00
2022-12-01T02:53:20.866Z,100.00
2022-12-01T02:55:54.353Z,100.00
2022-12-01T02:58:24.485Z,100.00
2022-12-01T03:01:21.724Z,100.00
2022-12-01T03:04:05.503Z,100.00
2022-12-01T03:06:49.999Z,100.00
2022-12-01T03:09:32.262Z,100.00
2022-12-01T03:12:13.040Z,100.00
2022-12-01T03:14:48.381Z,100.00
2022-12-01T03:17:21.159Z,100.00
2022-12-01T03:19:58.892Z,100.00
2022-12-01T03:22:31.717Z,100.00
2022-12-01T03:25:05.325Z,100.00
2022-12-01T03:27:41.778Z,100.00
2022-12-01T03:30:19.279Z,100.00
2022-12-01T03:32:52.493Z,100.00
2022-12-01T03:35:32.111Z,100.00
2022-12-01T03:38:08.537Z,100.00
2022-12-01T03:40:40.737Z,100.00
2022-12-01T03:43:14.675Z,100.00
2022-12-01T03:45:55.467Z,100.00
2022-12-01T03:48:26.462Z,100.00
2022-12-01T03:51:07.344Z,100.00
2022-12-01T03:53:45.468Z,100.00
2022-12-01T03:56:18.721Z,100.00
2022-12-01T03:58:52.245Z,100.00
2022-12-01T04:01:22.489Z,100.00
2022-12-01T04:03:52.497Z,100.00
2022-12-01T04:06:24.928Z,100.00
2022-12-01T04:08:54.778Z,100.00
2022-12-01T04:11:37.006Z,100.00
2022-12-01T04:14:06.831Z,100.00
2022-12-01T04:16:36.736Z,100.00
2022-12-01T04:19:06.635Z,100.00
2022-12-01T04:21:39.092Z,100.00
2022-12-01T04:24:09.696Z,100.00
2022-12-01T04:26:40.578Z,100.00
2022-12-01T04:29:12.960Z,100.00
2022-12-01T04:31:43.020Z,100.00
2022-12-01T04:34:13.684Z,100.00
2022-12-01T04:36:46.340Z,100.00
2022-12-01T04:39:16.426Z,100.00
2022-12-01T04:41:46.267Z,100.00
2022-12-01T04:44:16.490Z,100.00
2022-12-01T04:46:46.423Z,100.00
2022-12-01T04:49:16.310Z,100.00
2022-12-01T04:51:48.847Z,100.00
2022-12-01T04:54:19.225Z,100.00
2022-12-01T04:56:49.099Z,100.00
2022-12-01T04:59:18.986Z,100.00
2022-12-01T05:01:49.467Z,100.00
2022-12-01T05:04:19.545Z,100.00
2022-12-01T05:06:52.009Z,100.00
2022-12-01T05:09:21.870Z,100.00
2022-12-01T05:11:51.705Z,100.00
2022-12-01T05:14:21.595Z,100.00
2022-12-01T05:16:51.510Z,100.00
2022-12-01T05:19:33.848Z,100.00
2022-12-01T05:22:06.346Z,100.00
2022-12-01T05:24:36.173Z,100.00
2022-12-01T05:27:06.090Z,100.00
2022-12-01T05:29:35.957Z,100.00
2022-12-01T05:32:06.021Z,100.00
2022-12-01T05:34:35.855Z,100.00
2022-12-01T05:37:08.450Z,100.00
2022-12-01T05:39:40.272Z,100.00
2022-12-01T05:42:10.101Z,100.00
2022-12-01T05:44:39.960Z,100.00
2022-12-01T05:47:09.819Z,100.00
2022-12-01T05:49:39.676Z,100.00
2022-12-01T05:52:12.225Z,100.00
2022-12-01T05:54:42.069Z,100.00
2022-12-01T05:57:11.888Z,100.00
2022-12-01T05:59:41.795Z,100.00
2022-12-01T06:02:11.670Z,100.00
2022-12-01T06:04:41.518Z,100.00
2022-12-01T06:07:13.952Z,100.00
2022-12-01T06:09:45.280Z,100.00
2022-12-01T06:12:15.516Z,100.00
2022-12-01T06:14:45.390Z,100.00
2022-12-01T06:17:15.227Z,100.00
2022-12-01T06:19:48.381Z,100.00
2022-12-01T06:22:21.045Z,100.00
2022-12-01T06:24:50.883Z,100.00
2022-12-01T06:27:20.738Z,100.00
2022-12-01T06:29:51.354Z,100.00
2022-12-01T06:32:21.484Z,100.00
2022-12-01T06:34:51.330Z,100.00
2022-12-01T06:37:23.777Z,100.00
2022-12-01T06:39:53.642Z,100.00
2022-12-01T06:42:23.847Z,100.00
2022-12-01T06:44:53.691Z,100.00
2022-12-01T06:47:23.604Z,100.00
2022-12-01T06:49:53.499Z,100.00
2022-12-01T06:52:26.001Z,100.00
2022-12-01T06:54:55.847Z,100.00
2022-12-01T06:57:25.806Z,100.00
2022-12-01T06:59:56.203Z,100.00
2022-12-01T07:02:26.640Z,100.00
2022-12-01T07:04:56.530Z,100.00
2022-12-01T07:07:29.030Z,100.00
2022-12-01T07:09:58.970Z,100.00
2022-12-01T07:12:28.854Z,100.00
2022-12-01T07:14:58.700Z,100.00
2022-12-01T07:17:28.538Z,100.00
2022-12-01T07:19:58.401Z,100.00
2022-12-01T07:22:32.946Z,100.00
2022-12-01T07:25:03.048Z,100.00
2022-12-01T07:27:34.375Z,100.00
2022-12-01T07:30:09.112Z,100.00
2022-12-01T07:32:41.100Z,100.00
2022-12-01T07:35:11.661Z,100.00
2022-12-01T07:37:44.309Z,100.00
2022-12-01T07:40:15.290Z,100.00
2022-12-01T07:42:46.174Z,100.00
2022-12-01T07:45:16.070Z,99.83
2022-12-01T07:47:46.201Z,100.00
2022-12-01T07:50:16.112Z,99.99
2022-12-01T07:52:52.676Z,98.92
2022-12-01T07:55:24.686Z,99.35
2022-12-01T07:57:55.596Z,99.08
2022-12-01T08:00:25.937Z,99.36
2022-12-01T08:02:55.927Z,99.28
2022-12-01T08:05:26.871Z,99.39
2022-12-01T08:08:05.835Z,99.80
2022-12-01T08:10:40.555Z,99.77
2022-12-01T08:13:17.015Z,99.15
2022-12-01T08:15:47.383Z,99.80
2022-12-01T08:18:17.258Z,99.44
2022-12-01T08:20:50.369Z,98.56
2022-12-01T08:23:22.991Z,98.36
2022-12-01T08:25:57.633Z,99.15
2022-12-01T08:28:27.536Z,100.00
2022-12-01T08:31:01.678Z,98.92
2022-12-01T08:33:32.004Z,99.42
2022-12-01T08:36:07.069Z,98.69
2022-12-01T08:38:39.692Z,99.63
2022-12-01T08:41:15.119Z,98.23
2022-12-01T08:43:57.907Z,98.92
2022-12-01T08:46:29.670Z,98.65
2022-12-01T08:48:59.999Z,99.22
2022-12-01T08:51:34.558Z,98.71
2022-12-01T08:54:14.135Z,97.44
2022-12-01T08:56:46.494Z,97.86
2022-12-01T08:59:16.719Z,97.70
2022-12-01T09:01:55.105Z,96.96
2022-12-01T09:04:29.521Z,97.43
2022-12-01T09:07:00.639Z,97.74
2022-12-01T09:09:38.414Z,96.82
2022-12-01T09:12:10.054Z,97.56
2022-12-01T09:14:41.795Z,97.24
2022-12-01T09:17:12.190Z,96.68
2022-12-01T09:19:42.040Z,96.45
2022-12-01T09:22:15.456Z,96.80
2022-12-01T09:24:49.990Z,96.80
2022-12-01T09:27:19.856Z,96.01
2022-12-01T09:29:53.477Z,95.87
2022-12-01T09:32:24.394Z,95.83
2022-12-01T09:34:54.318Z,95.58
2022-12-01T09:37:24.229Z,95.41
2022-12-01T09:39:56.763Z,95.93
2022-12-01T09:42:35.223Z,95.58
2022-12-01T09:45:06.702Z,95.26
2022-12-01T09:47:38.701Z,94.64
2022-12-01T09:50:18.908Z,93.60
2022-12-01T09:52:52.637Z,94.65
2022-12-01T09:55:26.622Z,94.43
2022-12-01T09:57:58.115Z,94.11
2022-12-01T10:00:31.267Z,93.07
2022-12-01T10:03:14.351Z,93.74
2022-12-01T10:06:25.267Z,93.33
2022-12-01T10:08:53.130Z,93.47
2022-12-01T10:11:36.910Z,93.11
2022-12-01T10:14:19.298Z,93.21
2022-12-01T10:16:58.268Z,92.78
2022-12-01T10:19:35.483Z,92.52
2022-12-01T10:22:43.590Z,92.23
2022-12-01T10:25:23.326Z,92.51
2022-12-01T10:28:14.214Z,92.34
2022-12-01T10:30:52.677Z,93.15
2022-12-01T10:33:26.905Z,92.19
2022-12-01T10:35:57.076Z,92.34
2022-12-01T10:38:35.025Z,91.93
2022-12-01T10:41:08.166Z,92.30
2022-12-01T10:43:45.121Z,92.42
2022-12-01T10:46:24.264Z,92.48
2022-12-01T10:48:58.976Z,92.54
2022-12-01T10:51:32.514Z,91.90
2022-12-01T10:54:11.513Z,91.90
2022-12-01T10:56:43.808Z,93.04
2022-12-01T10:59:26.467Z,91.87
2022-12-01T11:01:57.351Z,92.23
2022-12-01T11:04:45.227Z,93.61
2022-12-01T11:07:21.183Z,92.96
2022-12-01T11:10:08.508Z,92.24
2022-12-01T11:12:39.524Z,91.62
2022-12-01T11:15:23.863Z,91.93
2022-12-01T11:18:01.262Z,92.14
2022-12-01T11:20:36.027Z,91.38
2022-12-01T11:23:25.508Z,91.68
2022-12-01T11:26:12.528Z,92.67
2022-12-01T11:28:56.316Z,91.43
2022-12-01T11:31:42.104Z,92.23
2022-12-01T11:34:22.236Z,91.93
2022-12-01T11:36:55.475Z,92.33
2022-12-01T11:39:31.900Z,91.82
2022-12-01T11:42:04.965Z,92.46
2022-12-01T11:44:51.228Z,92.56
2022-12-01T11:47:30.530Z,92.53
2022-12-01T11:50:02.712Z,92.14
2022-12-01T11:52:36.651Z,92.48
2022-12-01T11:55:24.702Z,92.11
2022-12-01T11:58:04.553Z,92.22
2022-12-01T12:00:46.659Z,91.99
2022-12-01T12:03:31.956Z,91.09
2022-12-01T12:09:45.060Z,90.11
2022-12-01T12:12:25.164Z,90.72
2022-12-01T12:15:07.042Z,90.71
2022-12-01T12:17:57.897Z,90.99
2022-12-01T12:20:44.916Z,89.22
2022-12-01T12:23:40.165Z,90.15
2022-12-01T12:26:20.128Z,90.87
2022-12-01T12:29:19.684Z,91.29
2022-12-01T12:32:00.561Z,89.89
2022-12-01T12:34:43.012Z,90.01
2022-12-01T12:37:24.972Z,90.64
2022-12-01T12:40:17.514Z,91.10
2022-12-01T12:42:59.010Z,91.05
2022-12-01T12:45:41.992Z,91.33
2022-12-01T12:48:30.608Z,89.74
2022-12-01T12:51:13.243Z,90.81
2022-12-01T12:53:50.160Z,91.08
2022-12-01T12:56:25.323Z,91.59
2022-12-01T12:59:00.991Z,90.92
2022-12-01T13:01:37.291Z,91.87
2022-12-01T13:04:12.402Z,90.76
2022-12-01T13:06:47.598Z,89.66
2022-12-01T13:09:25.228Z,90.48
2022-12-01T13:12:02.187Z,90.54
2022-12-01T13:14:37.170Z,91.05
2022-12-01T13:17:17.215Z,90.80
2022-12-01T13:19:49.083Z,90.27
2022-12-01T13:22:21.886Z,90.39
2022-12-01T13:24:56.512Z,89.70
2022-12-01T13:27:36.967Z,89.36
2022-12-01T13:30:19.207Z,90.39
2022-12-01T13:32:52.063Z,89.51
2022-12-01T13:35:27.908Z,89.80
2022-12-01T13:38:29.756Z,89.47
2022-12-01T13:41:24.560Z,90.05
2022-12-01T13:44:03.687Z,90.82
2022-12-01T13:46:52.362Z,90.20
2022-12-01T13:49:42.683Z,90.04
2022-12-01T13:52:29.159Z,90.13
2022-12-01T13:55:22.357Z,90.74
2022-12-01T13:58:37.263Z,91.26
2022-12-01T14:01:37.068Z,92.03
2022-12-01T14:04:33.517Z,90.87
2022-12-01T14:07:37.801Z,90.87
2022-12-01T14:10:27.489Z,91.45
2022-12-01T14:13:04.616Z,91.39
2022-12-01T14:15:43.890Z,92.20
2022-12-01T14:18:33.954Z,92.26
2022-12-01T14:21:10.507Z,93.00
2022-12-01T14:24:02.256Z,92.38
2022-12-01T14:26:34.793Z,92.61
2022-12-01T14:29:13.600Z,93.45
2022-12-01T14:32:22.855Z,93.33
2022-12-01T14:35:06.193Z,94.50
2022-12-01T14:37:45.332Z,95.07
2022-12-01T14:40:21.494Z,94.83
2022-12-01T14:43:09.045Z,96.87
2022-12-01T14:45:52.552Z,92.90
2022-12-01T14:48:30.850Z,92.39
2022-12-01T14:51:14.879Z,92.40
2022-12-01T14:53:53.527Z,92.38
2022-12-01T14:56:25.411Z,92.94
2022-12-01T14:58:59.365Z,93.17
2022-12-01T15:01:34.134Z,93.94
2022-12-01T15:04:07.317Z,94.24
2022-12-01T15:06:40.358Z,94.46
2022-12-01T15:09:33.950Z,94.27
2022-12-01T15:12:07.794Z,94.21
2022-12-01T15:14:49.750Z,93.67
2022-12-01T15:17:33.026Z,93.30
2022-12-01T15:20:03.482Z,93.97
2022-12-01T15:22:36.486Z,93.57
2022-12-01T15:25:17.664Z,92.71
2022-12-01T15:27:48.663Z,93.48
2022-12-01T15:30:20.969Z,93.52
2022-12-01T15:32:54.822Z,92.97
2022-12-01T15:35:29.773Z,92.88
2022-12-01T15:38:01.147Z,92.63
2022-12-01T15:43:26.943Z,93.73
2022-12-01T15:46:01.175Z,93.83
2022-12-01T15:48:34.368Z,93.18
2022-12-01T15:51:09.271Z,94.10
2022-12-01T15:53:42.798Z,93.42
2022-12-01T15:56:17.248Z,93.97
2022-12-01T15:58:50.039Z,93.56
2022-12-01T16:01:22.406Z,93.86
2022-12-01T16:03:56.510Z,94.40
2022-12-01T16:06:34.408Z,93.74
2022-12-01T16:09:09.454Z,94.13
2022-12-01T16:12:08.630Z,95.12
2022-12-01T16:14:39.819Z,94.93
2022-12-01T16:17:14.151Z,95.22
2022-12-01T16:19:45.523Z,94.99
2022-12-01T16:22:20.595Z,95.37
2022-12-01T16:24:53.966Z,95.08
2022-12-01T16:27:28.734Z,95.15
2022-12-01T16:30:02.071Z,95.39
2022-12-01T16:32:40.818Z,95.72
2022-12-01T16:35:26.459Z,94.74
2022-12-01T16:37:59.908Z,95.73
2022-12-01T16:40:29.848Z,95.55
2022-12-01T16:43:02.346Z,95.42
2022-12-01T16:45:35.551Z,95.09
2022-12-01T16:48:09.258Z,95.09
2022-12-01T16:50:41.509Z,95.27
2022-12-01T16:53:14.091Z,95.79
2022-12-01T16:55:49.378Z,96.03
2022-12-01T16:58:23.285Z,95.88
2022-12-01T17:00:55.226Z,95.43
2022-12-01T17:03:27.135Z,95.78
2022-12-01T17:05:58.414Z,94.62
2022-12-01T17:08:28.480Z,95.52
2022-12-01T17:10:58.389Z,95.70
2022-12-01T17:13:30.886Z,96.07
2022-12-01T17:16:00.766Z,96.55
2022-12-01T17:18:30.700Z,97.40
2022-12-01T17:21:02.007Z,98.19
2022-12-01T17:23:32.883Z,98.38
2022-12-01T17:26:03.607Z,97.75
2022-12-01T17:28:36.125Z,98.12
2022-12-01T17:31:06.695Z,98.05
2022-12-01T17:33:37.371Z,99.24
2022-12-01T17:36:09.584Z,99.88
2022-12-01T17:38:40.735Z,99.21
2022-12-01T17:41:12.355Z,99.31
2022-12-01T17:43:45.163Z,98.32
2022-12-01T17:46:15.961Z,98.44
2022-12-01T17:48:47.731Z,98.62
2022-12-01T17:51:18.441Z,98.88
2022-12-01T17:53:48.332Z,99.39
2022-12-01T17:56:19.594Z,99.71
2022-12-01T17:58:52.243Z,99.70
2022-12-01T18:01:28.600Z,99.49
2022-12-01T18:04:01.044Z,99.17
2022-12-01T18:06:31.168Z,99.75
2022-12-01T18:09:02.910Z,99.50
2022-12-01T18:11:32.818Z,99.46
2022-12-01T18:14:05.315Z,100.00
2022-12-01T18:16:36.122Z,100.00
2022-12-01T18:19:06.250Z,100.00
2022-12-01T18:21:36.070Z,100.00
2022-12-01T18:24:08.983Z,100.00
2022-12-01T18:26:40.457Z,100.00
2022-12-01T18:29:16.087Z,100.00
2022-12-01T18:31:46.100Z,100.00
2022-12-01T18:34:16.185Z,100.00
2022-12-01T18:36:47.074Z,99.84
2022-12-01T18:39:16.944Z,100.00
2022-12-01T18:41:47.062Z,100.00
2022-12-01T18:44:19.473Z,100.00
2022-12-01T18:46:49.470Z,100.00
2022-12-01T18:49:19.371Z,100.00
2022-12-01T18:51:49.207Z,100.00
2022-12-01T18:54:19.630Z,100.00
2022-12-01T18:56:55.121Z,100.00
2022-12-01T18:59:28.878Z,100.00
2022-12-01T19:01:58.830Z,100.00
2022-12-01T19:04:29.147Z,100.00
2022-12-01T19:06:58.940Z,100.00
2022-12-01T19:09:28.828Z,100.00
2022-12-01T19:12:01.626Z,100.00
2022-12-01T19:14:34.112Z,100.00
2022-12-01T19:17:04.043Z,100.00
2022-12-01T19:19:37.644Z,100.00
2022-12-01T19:22:07.708Z,100.00
2022-12-01T19:24:37.763Z,100.00
2022-12-01T19:27:07.606Z,100.00
2022-12-01T19:29:40.106Z,100.00
2022-12-01T19:32:11.089Z,100.00
2022-12-01T19:34:41.047Z,100.00
2022-12-01T19:37:11.002Z,100.00
2022-12-01T19:39:41.183Z,100.00
2022-12-01T19:42:12.422Z,100.00
2022-12-01T19:44:46.074Z,100.00
2022-12-01T19:47:22.246Z,100.00
2022-12-01T19:49:52.663Z,100.00
2022-12-01T19:52:22.572Z,100.00
2022-12-01T19:54:53.086Z,100.00
2022-12-01T19:57:23.324Z,100.00
2022-12-01T19:59:55.805Z,100.00
2022-12-01T20:02:29.025Z,100.00
2022-12-01T20:04:59.316Z,100.00
2022-12-01T20:07:29.228Z,100.00
2022-12-01T20:09:59.207Z,100.00
2022-12-01T20:12:29.179Z,100.00
2022-12-01T20:15:01.635Z,100.00
2022-12-01T20:17:31.524Z,100.00
2022-12-01T20:20:03.192Z,100.00
2022-12-01T20:22:34.711Z,100.00
2022-12-01T20:25:07.404Z,100.00
2022-12-01T20:27:37.628Z,100.00
2022-12-01T20:30:12.184Z,100.00
2022-12-01T20:32:42.104Z,100.00
2022-12-01T20:35:15.664Z,100.00
2022-12-01T20:37:45.694Z,100.00
2022-12-01T20:40:16.245Z,100.00
2022-12-01T20:42:46.125Z,100.00
2022-12-01T20:45:18.756Z,100.00
2022-12-01T20:47:48.634Z,100.00
2022-12-01T20:50:18.908Z,100.00
2022-12-01T20:52:48.753Z,100.00
2022-12-01T20:55:18.718Z,100.00
2022-12-01T20:57:48.612Z,100.00
2022-12-01T21:00:22.042Z,100.00
2022-12-01T21:02:52.093Z,100.00
2022-12-01T21:05:22.039Z,100.00
2022-12-01T21:07:52.376Z,100.00
2022-12-01T21:10:23.761Z,100.00
2022-12-01T21:13:10.317Z,100.00
2022-12-01T21:15:52.061Z,100.00
2022-12-01T21:18:26.726Z,100.00
2022-12-01T21:21:04.334Z,100.00
2022-12-01T21:23:34.282Z,100.00
2022-12-01T21:26:04.554Z,100.00
2022-12-01T21:28:34.689Z,100.00
2022-12-01T21:31:14.916Z,100.00
2022-12-01T21:33:45.510Z,100.00
2022-12-01T21:36:18.843Z,100.00
2022-12-01T21:38:51.042Z,100.00
2022-12-01T21:41:27.709Z,100.00
2022-12-01T21:44:05.441Z,100.00
2022-12-01T21:46:41.232Z,100.00
2022-12-01T21:49:22.634Z,100.00
2022-12-01T21:51:55.374Z,100.00
2022-12-01T21:54:25.646Z,100.00
2022-12-01T21:57:00.596Z,100.00
2022-12-01T21:59:30.999Z,100.00
2022-12-01T22:02:17.342Z,100.00
2022-12-01T22:04:47.488Z,100.00
2022-12-01T22:07:18.479Z,100.00
2022-12-01T22:09:48.509Z,100.00
2022-12-01T22:12:31.219Z,100.00
2022-12-01T22:15:04.387Z,100.00
2022-12-01T22:17:40.534Z,100.00
2022-12-01T22:20:24.023Z,100.00
2022-12-01T22:22:59.986Z,100.00
2022-12-01T22:25:30.490Z,100.00
2022-12-01T22:28:01.576Z,100.00
2022-12-01T22:30:36.754Z,100.00
2022-12-01T22:33:19.447Z,100.00
2022-12-01T22:35:51.225Z,100.00
2022-12-01T22:38:33.992Z,100.00
2022-12-01T22:41:08.584Z,100.00
2022-12-01T22:43:50.778Z,100.00
2022-12-01T22:46:27.755Z,100.00
2022-12-01T22:49:02.030Z,100.00
2022-12-01T22:51:42.443Z,100.00
2022-12-01T22:54:35.831Z,100.00
2022-12-01T22:57:14.757Z,100.00
2022-12-01T22:59:47.846Z,100.00
2022-12-01T23:02:23.884Z,100.00
2022-12-01T23:05:00.005Z,100.00
2022-12-01T23:07:33.720Z,100.00
2022-12-01T23:10:12.244Z,100.00
2022-12-01T23:12:42.671Z,100.00
2022-12-01T23:15:30.184Z,100.00
2022-12-01T23:18:02.866Z,100.00
2022-12-01T23:20:37.033Z,100.00
2022-12-01T23:23:09.866Z,100.00
2022-12-01T23:25:39.763Z,100.00
2022-12-01T23:28:11.203Z,100.00
2022-12-01T23:30:44.553Z,100.00
2022-12-01T23:33:20.011Z,100.00
2022-12-01T23:35:56.618Z,100.00
2022-12-01T23:38:32.198Z,100.00
2022-12-01T23:41:04.412Z,100.00
2022-12-01T23:43:37.543Z,100.00
2022-12-01T23:46:10.683Z,100.00
2022-12-01T23:48:44.392Z,100.00
2022-12-01T23:51:21.464Z,100.00
2022-12-01T23:53:51.843Z,100.00
2022-12-01T23:56:24.733Z,100.00
2022-12-01T23:58:55.597Z,100.00
